sensor_id;sensor_type;location;lat;lon;timestamp;P1;durP1;ratioP1;P2;durP2;ratioP2
71665;SDS011;59503;53.486;10.196;2024-03-02T00:02:11;41.65;;;16.33;;
71665;SDS011;59503;53.486;10.196;2024-03-02T00:04:36;36.20;;;14.97;;
71665;SDS011;59503;53.486;10.196;2024-03-02T00:07:02;41.72;;;15.82;;
71665;SDS011;59503;53.486;10.196;2024-03-02T00:09:29;37.50;;;15.20;;
71665;SDS011;59503;53.486;10.196;2024-03-02T00:11:54;41.55;;;15.85;;
71665;SDS011;59503;53.486;10.196;2024-03-02T00:14:20;43.90;;;16.80;;
71665;SDS011;59503;53.486;10.196;2024-03-02T00:16:46;40.67;;;15.73;;
71665;SDS011;59503;53.486;10.196;2024-03-02T00:19:12;38.67;;;16.35;;
71665;SDS011;59503;53.486;10.196;2024-03-02T00:21:38;41.67;;;16.13;;
71665;SDS011;59503;53.486;10.196;2024-03-02T00:24:23;42.40;;;16.27;;
71665;SDS011;59503;53.486;10.196;2024-03-02T00:26:56;42.05;;;17.48;;
71665;SDS011;59503;53.486;10.196;2024-03-02T00:29:22;42.97;;;16.27;;
71665;SDS011;59503;53.486;10.196;2024-03-02T00:31:47;44.53;;;17.20;;
71665;SDS011;59503;53.486;10.196;2024-03-02T00:34:13;48.38;;;18.60;;
71665;SDS011;59503;53.486;10.196;2024-03-02T00:36:41;45.65;;;18.63;;
71665;SDS011;59503;53.486;10.196;2024-03-02T00:39:07;46.58;;;17.75;;
71665;SDS011;59503;53.486;10.196;2024-03-02T00:41:33;48.93;;;18.67;;
71665;SDS011;59503;53.486;10.196;2024-03-02T00:44:06;43.67;;;17.17;;
71665;SDS011;59503;53.486;10.196;2024-03-02T00:46:36;47.15;;;18.40;;
71665;SDS011;59503;53.486;10.196;2024-03-02T00:49:03;50.90;;;18.33;;
71665;SDS011;59503;53.486;10.196;2024-03-02T00:51:31;49.23;;;18.70;;
71665;SDS011;59503;53.486;10.196;2024-03-02T00:53:58;48.92;;;19.67;;
71665;SDS011;59503;53.486;10.196;2024-03-02T00:56:25;44.50;;;19.17;;
71665;SDS011;59503;53.486;10.196;2024-03-02T00:58:52;52.35;;;20.02;;
71665;SDS011;59503;53.486;10.196;2024-03-02T01:01:18;53.40;;;20.63;;
71665;SDS011;59503;53.486;10.196;2024-03-02T01:03:47;51.72;;;19.58;;
71665;SDS011;59503;53.486;10.196;2024-03-02T01:06:14;53.42;;;19.50;;
71665;SDS011;59503;53.486;10.196;2024-03-02T01:08:40;46.30;;;18.88;;
71665;SDS011;59503;53.486;10.196;2024-03-02T01:11:06;51.23;;;19.47;;
71665;SDS011;59503;53.486;10.196;2024-03-02T01:13:32;49.20;;;18.63;;
71665;SDS011;59503;53.486;10.196;2024-03-02T01:15:58;52.30;;;19.75;;
71665;SDS011;59503;53.486;10.196;2024-03-02T01:18:24;49.03;;;18.43;;
71665;SDS011;59503;53.486;10.196;2024-03-02T01:20:50;50.22;;;19.85;;
71665;SDS011;59503;53.486;10.196;2024-03-02T01:23:23;50.70;;;19.35;;
71665;SDS011;59503;53.486;10.196;2024-03-02T01:25:52;49.58;;;18.00;;
71665;SDS011;59503;53.486;10.196;2024-03-02T01:28:18;47.70;;;19.43;;
71665;SDS011;59503;53.486;10.196;2024-03-02T01:30:45;55.33;;;20.00;;
71665;SDS011;59503;53.486;10.196;2024-03-02T01:33:11;51.92;;;19.30;;
71665;SDS011;59503;53.486;10.196;2024-03-02T01:35:36;51.67;;;19.63;;
71665;SDS011;59503;53.486;10.196;2024-03-02T01:38:02;55.65;;;20.25;;
71665;SDS011;59503;53.486;10.196;2024-03-02T01:40:29;49.70;;;19.57;;
71665;SDS011;59503;53.486;10.196;2024-03-02T01:42:54;48.00;;;18.73;;
71665;SDS011;59503;53.486;10.196;2024-03-02T01:45:20;54.40;;;19.27;;
71665;SDS011;59503;53.486;10.196;2024-03-02T01:47:46;54.43;;;20.03;;
71665;SDS011;59503;53.486;10.196;2024-03-02T01:50:12;54.93;;;20.30;;
71665;SDS011;59503;53.486;10.196;2024-03-02T01:52:38;50.63;;;19.05;;
71665;SDS011;59503;53.486;10.196;2024-03-02T01:55:04;51.78;;;19.58;;
71665;SDS011;59503;53.486;10.196;2024-03-02T01:57:31;58.17;;;19.63;;
71665;SDS011;59503;53.486;10.196;2024-03-02T01:59:57;53.63;;;20.23;;
71665;SDS011;59503;53.486;10.196;2024-03-02T02:02:22;49.93;;;20.03;;
71665;SDS011;59503;53.486;10.196;2024-03-02T02:04:48;58.45;;;20.38;;
71665;SDS011;59503;53.486;10.196;2024-03-02T02:07:13;55.93;;;20.10;;
71665;SDS011;59503;53.486;10.196;2024-03-02T02:09:42;53.15;;;20.38;;
71665;SDS011;59503;53.486;10.196;2024-03-02T02:12:09;51.40;;;20.80;;
71665;SDS011;59503;53.486;10.196;2024-03-02T02:14:35;51.38;;;20.88;;
71665;SDS011;59503;53.486;10.196;2024-03-02T02:17:01;51.28;;;19.50;;
71665;SDS011;59503;53.486;10.196;2024-03-02T02:19:27;50.75;;;19.77;;
71665;SDS011;59503;53.486;10.196;2024-03-02T02:21:53;55.30;;;18.83;;
71665;SDS011;59503;53.486;10.196;2024-03-02T02:24:19;48.73;;;20.00;;
71665;SDS011;59503;53.486;10.196;2024-03-02T02:26:44;50.30;;;18.17;;
71665;SDS011;59503;53.486;10.196;2024-03-02T02:29:10;50.70;;;19.27;;
71665;SDS011;59503;53.486;10.196;2024-03-02T02:31:41;57.47;;;19.97;;
71665;SDS011;59503;53.486;10.196;2024-03-02T02:34:08;49.47;;;18.80;;
71665;SDS011;59503;53.486;10.196;2024-03-02T02:36:34;46.92;;;18.27;;
71665;SDS011;59503;53.486;10.196;2024-03-02T02:39:04;49.10;;;19.20;;
71665;SDS011;59503;53.486;10.196;2024-03-02T02:41:31;52.93;;;20.23;;
71665;SDS011;59503;53.486;10.196;2024-03-02T02:43:57;47.22;;;19.38;;
71665;SDS011;59503;53.486;10.196;2024-03-02T02:46:23;50.83;;;19.33;;
71665;SDS011;59503;53.486;10.196;2024-03-02T02:48:48;52.90;;;19.60;;
71665;SDS011;59503;53.486;10.196;2024-03-02T02:51:14;59.25;;;20.30;;
71665;SDS011;59503;53.486;10.196;2024-03-02T02:53:39;55.07;;;20.73;;
71665;SDS011;59503;53.486;10.196;2024-03-02T02:56:08;53.05;;;19.75;;
71665;SDS011;59503;53.486;10.196;2024-03-02T02:58:34;55.40;;;20.77;;
71665;SDS011;59503;53.486;10.196;2024-03-02T03:01:00;51.60;;;19.98;;
71665;SDS011;59503;53.486;10.196;2024-03-02T03:03:26;56.00;;;20.47;;
71665;SDS011;59503;53.486;10.196;2024-03-02T03:05:53;53.30;;;19.85;;
71665;SDS011;59503;53.486;10.196;2024-03-02T03:08:18;54.97;;;20.93;;
71665;SDS011;59503;53.486;10.196;2024-03-02T03:10:44;55.93;;;19.93;;
71665;SDS011;59503;53.486;10.196;2024-03-02T03:13:10;51.00;;;19.97;;
71665;SDS011;59503;53.486;10.196;2024-03-02T03:15:35;54.30;;;20.48;;
71665;SDS011;59503;53.486;10.196;2024-03-02T03:18:01;58.80;;;21.73;;
71665;SDS011;59503;53.486;10.196;2024-03-02T03:20:30;49.70;;;20.10;;
71665;SDS011;59503;53.486;10.196;2024-03-02T03:22:57;54.73;;;20.17;;
71665;SDS011;59503;53.486;10.196;2024-03-02T03:25:23;51.60;;;20.27;;
71665;SDS011;59503;53.486;10.196;2024-03-02T03:27:49;49.25;;;19.70;;
71665;SDS011;59503;53.486;10.196;2024-03-02T03:30:14;57.80;;;20.20;;
71665;SDS011;59503;53.486;10.196;2024-03-02T03:32:40;53.65;;;21.15;;
71665;SDS011;59503;53.486;10.196;2024-03-02T03:35:06;52.80;;;19.53;;
71665;SDS011;59503;53.486;10.196;2024-03-02T03:37:32;47.53;;;19.80;;
71665;SDS011;59503;53.486;10.196;2024-03-02T03:40:07;54.15;;;19.52;;
71665;SDS011;59503;53.486;10.196;2024-03-02T03:42:36;54.92;;;21.38;;
71665;SDS011;59503;53.486;10.196;2024-03-02T03:45:02;53.33;;;20.37;;
71665;SDS011;59503;53.486;10.196;2024-03-02T03:47:28;51.78;;;18.60;;
71665;SDS011;59503;53.486;10.196;2024-03-02T03:49:54;45.47;;;19.17;;
71665;SDS011;59503;53.486;10.196;2024-03-02T03:52:19;51.53;;;19.47;;
71665;SDS011;59503;53.486;10.196;2024-03-02T03:54:46;53.92;;;20.95;;
71665;SDS011;59503;53.486;10.196;2024-03-02T03:57:12;55.85;;;19.33;;
71665;SDS011;59503;53.486;10.196;2024-03-02T03:59:37;49.40;;;19.63;;
71665;SDS011;59503;53.486;10.196;2024-03-02T04:02:03;47.80;;;20.00;;
71665;SDS011;59503;53.486;10.196;2024-03-02T04:04:28;54.47;;;19.43;;
71665;SDS011;59503;53.486;10.196;2024-03-02T04:06:54;48.45;;;19.55;;
71665;SDS011;59503;53.486;10.196;2024-03-02T04:09:19;49.63;;;17.93;;
71665;SDS011;59503;53.486;10.196;2024-03-02T04:11:45;48.77;;;18.80;;
71665;SDS011;59503;53.486;10.196;2024-03-02T04:14:11;47.85;;;19.23;;
71665;SDS011;59503;53.486;10.196;2024-03-02T04:16:37;46.28;;;18.23;;
71665;SDS011;59503;53.486;10.196;2024-03-02T04:19:03;53.20;;;19.57;;
71665;SDS011;59503;53.486;10.196;2024-03-02T04:21:29;49.90;;;19.33;;
71665;SDS011;59503;53.486;10.196;2024-03-02T04:23:54;46.93;;;19.27;;
71665;SDS011;59503;53.486;10.196;2024-03-02T04:26:23;45.05;;;18.75;;
71665;SDS011;59503;53.486;10.196;2024-03-02T04:28:50;50.28;;;18.15;;
71665;SDS011;59503;53.486;10.196;2024-03-02T04:31:16;43.08;;;17.95;;
71665;SDS011;59503;53.486;10.196;2024-03-02T04:33:42;46.23;;;18.57;;
71665;SDS011;59503;53.486;10.196;2024-03-02T04:36:08;47.70;;;18.63;;
71665;SDS011;59503;53.486;10.196;2024-03-02T04:38:36;46.83;;;18.05;;
71665;SDS011;59503;53.486;10.196;2024-03-02T04:41:03;46.88;;;18.35;;
71665;SDS011;59503;53.486;10.196;2024-03-02T04:43:31;50.13;;;19.40;;
71665;SDS011;59503;53.486;10.196;2024-03-02T04:45:57;45.38;;;18.23;;
71665;SDS011;59503;53.486;10.196;2024-03-02T04:48:23;47.58;;;17.80;;
71665;SDS011;59503;53.486;10.196;2024-03-02T04:50:49;44.93;;;18.03;;
71665;SDS011;59503;53.486;10.196;2024-03-02T04:53:14;44.03;;;17.80;;
71665;SDS011;59503;53.486;10.196;2024-03-02T04:55:40;44.27;;;17.13;;
71665;SDS011;59503;53.486;10.196;2024-03-02T04:58:05;42.67;;;17.57;;
71665;SDS011;59503;53.486;10.196;2024-03-02T05:00:32;42.10;;;17.27;;
71665;SDS011;59503;53.486;10.196;2024-03-02T05:02:58;42.28;;;17.33;;
71665;SDS011;59503;53.486;10.196;2024-03-02T05:05:23;46.13;;;18.30;;
71665;SDS011;59503;53.486;10.196;2024-03-02T05:07:49;42.13;;;17.95;;
71665;SDS011;59503;53.486;10.196;2024-03-02T05:10:14;45.50;;;18.43;;
71665;SDS011;59503;53.486;10.196;2024-03-02T05:12:40;44.42;;;17.05;;
71665;SDS011;59503;53.486;10.196;2024-03-02T05:15:13;41.78;;;16.38;;
71665;SDS011;59503;53.486;10.196;2024-03-02T05:17:40;43.50;;;17.30;;
71665;SDS011;59503;53.486;10.196;2024-03-02T05:20:08;42.90;;;17.83;;
71665;SDS011;59503;53.486;10.196;2024-03-02T05:22:34;45.63;;;18.02;;
71665;SDS011;59503;53.486;10.196;2024-03-02T05:25:00;46.13;;;17.67;;
71665;SDS011;59503;53.486;10.196;2024-03-02T05:27:29;49.03;;;18.23;;
71665;SDS011;59503;53.486;10.196;2024-03-02T05:29:55;45.33;;;18.00;;
71665;SDS011;59503;53.486;10.196;2024-03-02T05:32:21;47.40;;;18.63;;
71665;SDS011;59503;53.486;10.196;2024-03-02T05:34:46;45.37;;;18.10;;
71665;SDS011;59503;53.486;10.196;2024-03-02T05:37:12;39.78;;;17.38;;
71665;SDS011;59503;53.486;10.196;2024-03-02T05:39:37;46.03;;;17.83;;
71665;SDS011;59503;53.486;10.196;2024-03-02T05:42:03;47.55;;;18.70;;
71665;SDS011;59503;53.486;10.196;2024-03-02T05:44:29;46.73;;;17.73;;
71665;SDS011;59503;53.486;10.196;2024-03-02T05:46:55;41.72;;;17.92;;
71665;SDS011;59503;53.486;10.196;2024-03-02T05:49:21;42.95;;;19.00;;
71665;SDS011;59503;53.486;10.196;2024-03-02T05:51:46;42.70;;;18.30;;
71665;SDS011;59503;53.486;10.196;2024-03-02T05:54:12;46.55;;;16.92;;
71665;SDS011;59503;53.486;10.196;2024-03-02T05:56:38;46.63;;;19.17;;
71665;SDS011;59503;53.486;10.196;2024-03-02T05:59:03;46.05;;;18.35;;
71665;SDS011;59503;53.486;10.196;2024-03-02T06:01:46;48.30;;;18.57;;
71665;SDS011;59503;53.486;10.196;2024-03-02T06:04:13;45.90;;;18.40;;
71665;SDS011;59503;53.486;10.196;2024-03-02T06:06:39;48.90;;;19.40;;
71665;SDS011;59503;53.486;10.196;2024-03-02T06:09:05;60.47;;;18.35;;
71665;SDS011;59503;53.486;10.196;2024-03-02T06:11:37;48.00;;;18.20;;
71665;SDS011;59503;53.486;10.196;2024-03-02T06:14:03;45.43;;;18.63;;
71665;SDS011;59503;53.486;10.196;2024-03-02T06:16:29;48.80;;;18.58;;
71665;SDS011;59503;53.486;10.196;2024-03-02T06:18:55;44.53;;;17.27;;
71665;SDS011;59503;53.486;10.196;2024-03-02T06:21:26;46.20;;;18.42;;
71665;SDS011;59503;53.486;10.196;2024-03-02T06:23:52;43.50;;;17.75;;
71665;SDS011;59503;53.486;10.196;2024-03-02T06:26:18;42.95;;;16.92;;
71665;SDS011;59503;53.486;10.196;2024-03-02T06:28:44;48.67;;;17.37;;
71665;SDS011;59503;53.486;10.196;2024-03-02T06:31:10;45.75;;;17.95;;
71665;SDS011;59503;53.486;10.196;2024-03-02T06:33:35;43.13;;;17.23;;
71665;SDS011;59503;53.486;10.196;2024-03-02T06:36:01;40.67;;;17.23;;
71665;SDS011;59503;53.486;10.196;2024-03-02T06:38:27;44.42;;;17.52;;
71665;SDS011;59503;53.486;10.196;2024-03-02T06:40:53;40.60;;;17.05;;
71665;SDS011;59503;53.486;10.196;2024-03-02T06:43:19;46.50;;;17.77;;
71665;SDS011;59503;53.486;10.196;2024-03-02T06:45:48;44.95;;;17.95;;
71665;SDS011;59503;53.486;10.196;2024-03-02T06:48:14;39.85;;;17.17;;
71665;SDS011;59503;53.486;10.196;2024-03-02T06:50:44;53.03;;;18.30;;
71665;SDS011;59503;53.486;10.196;2024-03-02T06:53:10;46.08;;;18.02;;
71665;SDS011;59503;53.486;10.196;2024-03-02T06:55:35;44.27;;;18.07;;
71665;SDS011;59503;53.486;10.196;2024-03-02T06:58:00;43.17;;;17.33;;
71665;SDS011;59503;53.486;10.196;2024-03-02T07:00:26;42.07;;;18.63;;
71665;SDS011;59503;53.486;10.196;2024-03-02T07:02:51;42.90;;;18.17;;
71665;SDS011;59503;53.486;10.196;2024-03-02T07:05:17;43.67;;;16.47;;
71665;SDS011;59503;53.486;10.196;2024-03-02T07:07:43;48.93;;;19.00;;
71665;SDS011;59503;53.486;10.196;2024-03-02T07:10:08;50.88;;;18.98;;
71665;SDS011;59503;53.486;10.196;2024-03-02T07:12:34;49.90;;;18.90;;
71665;SDS011;59503;53.486;10.196;2024-03-02T07:14:59;46.38;;;18.45;;
71665;SDS011;59503;53.486;10.196;2024-03-02T07:17:27;52.23;;;19.47;;
71665;SDS011;59503;53.486;10.196;2024-03-02T07:19:53;42.42;;;18.67;;
71665;SDS011;59503;53.486;10.196;2024-03-02T07:22:18;48.57;;;19.00;;
71665;SDS011;59503;53.486;10.196;2024-03-02T07:24:44;46.40;;;18.30;;
71665;SDS011;59503;53.486;10.196;2024-03-02T07:27:11;43.55;;;18.90;;
71665;SDS011;59503;53.486;10.196;2024-03-02T07:29:37;43.13;;;18.27;;
71665;SDS011;59503;53.486;10.196;2024-03-02T07:32:03;44.83;;;19.33;;
71665;SDS011;59503;53.486;10.196;2024-03-02T07:34:29;42.08;;;17.77;;
71665;SDS011;59503;53.486;10.196;2024-03-02T07:36:54;44.63;;;17.60;;
71665;SDS011;59503;53.486;10.196;2024-03-02T07:39:20;46.25;;;17.10;;
71665;SDS011;59503;53.486;10.196;2024-03-02T07:41:46;42.03;;;17.57;;
71665;SDS011;59503;53.486;10.196;2024-03-02T07:44:12;43.20;;;17.70;;
71665;SDS011;59503;53.486;10.196;2024-03-02T07:46:47;40.22;;;17.00;;
71665;SDS011;59503;53.486;10.196;2024-03-02T07:49:15;51.28;;;17.23;;
71665;SDS011;59503;53.486;10.196;2024-03-02T07:51:40;37.33;;;16.23;;
71665;SDS011;59503;53.486;10.196;2024-03-02T07:54:06;39.23;;;17.20;;
71665;SDS011;59503;53.486;10.196;2024-03-02T07:56:31;36.47;;;16.33;;
71665;SDS011;59503;53.486;10.196;2024-03-02T07:58:57;41.13;;;16.67;;
71665;SDS011;59503;53.486;10.196;2024-03-02T08:01:26;41.60;;;16.63;;
71665;SDS011;59503;53.486;10.196;2024-03-02T08:03:55;34.92;;;15.70;;
71665;SDS011;59503;53.486;10.196;2024-03-02T08:06:23;37.07;;;16.67;;
71665;SDS011;59503;53.486;10.196;2024-03-02T08:08:55;34.75;;;15.68;;
71665;SDS011;59503;53.486;10.196;2024-03-02T08:11:22;41.92;;;16.95;;
71665;SDS011;59503;53.486;10.196;2024-03-02T08:13:48;37.67;;;16.27;;
71665;SDS011;59503;53.486;10.196;2024-03-02T08:16:14;36.15;;;16.05;;
71665;SDS011;59503;53.486;10.196;2024-03-02T08:18:41;41.33;;;16.60;;
71665;SDS011;59503;53.486;10.196;2024-03-02T08:21:06;39.10;;;16.27;;
71665;SDS011;59503;53.486;10.196;2024-03-02T08:23:33;37.58;;;16.15;;
71665;SDS011;59503;53.486;10.196;2024-03-02T08:26:00;36.75;;;16.30;;
71665;SDS011;59503;53.486;10.196;2024-03-02T08:28:25;35.97;;;15.20;;
71665;SDS011;59503;53.486;10.196;2024-03-02T08:30:51;34.47;;;16.40;;
71665;SDS011;59503;53.486;10.196;2024-03-02T08:33:16;37.88;;;16.00;;
71665;SDS011;59503;53.486;10.196;2024-03-02T08:35:42;36.57;;;15.40;;
71665;SDS011;59503;53.486;10.196;2024-03-02T08:38:07;35.90;;;17.27;;
71665;SDS011;59503;53.486;10.196;2024-03-02T08:40:32;36.30;;;16.07;;
71665;SDS011;59503;53.486;10.196;2024-03-02T08:42:59;35.40;;;15.43;;
71665;SDS011;59503;53.486;10.196;2024-03-02T08:45:24;38.88;;;16.40;;
71665;SDS011;59503;53.486;10.196;2024-03-02T08:47:50;33.37;;;16.07;;
71665;SDS011;59503;53.486;10.196;2024-03-02T08:50:15;33.50;;;15.47;;
71665;SDS011;59503;53.486;10.196;2024-03-02T08:52:41;37.03;;;15.02;;
71665;SDS011;59503;53.486;10.196;2024-03-02T08:55:07;35.80;;;16.33;;
71665;SDS011;59503;53.486;10.196;2024-03-02T08:57:33;32.20;;;15.32;;
71665;SDS011;59503;53.486;10.196;2024-03-02T08:59:59;32.03;;;15.25;;
71665;SDS011;59503;53.486;10.196;2024-03-02T09:02:25;30.02;;;15.35;;
71665;SDS011;59503;53.486;10.196;2024-03-02T09:04:51;33.00;;;15.53;;
71665;SDS011;59503;53.486;10.196;2024-03-02T09:07:18;33.35;;;15.75;;
71665;SDS011;59503;53.486;10.196;2024-03-02T09:09:43;34.65;;;15.73;;
71665;SDS011;59503;53.486;10.196;2024-03-02T09:12:08;34.07;;;15.23;;
71665;SDS011;59503;53.486;10.196;2024-03-02T09:14:34;33.33;;;14.90;;
71665;SDS011;59503;53.486;10.196;2024-03-02T09:17:02;33.83;;;15.07;;
71665;SDS011;59503;53.486;10.196;2024-03-02T09:19:28;31.40;;;14.55;;
71665;SDS011;59503;53.486;10.196;2024-03-02T09:21:54;31.37;;;14.53;;
71665;SDS011;59503;53.486;10.196;2024-03-02T09:24:21;32.90;;;15.60;;
71665;SDS011;59503;53.486;10.196;2024-03-02T09:26:47;33.77;;;15.23;;
71665;SDS011;59503;53.486;10.196;2024-03-02T09:29:12;30.92;;;14.55;;
71665;SDS011;59503;53.486;10.196;2024-03-02T09:31:39;32.05;;;14.90;;
71665;SDS011;59503;53.486;10.196;2024-03-02T09:34:08;28.33;;;13.75;;
71665;SDS011;59503;53.486;10.196;2024-03-02T09:36:34;25.80;;;13.00;;
71665;SDS011;59503;53.486;10.196;2024-03-02T09:38:59;25.67;;;13.07;;
71665;SDS011;59503;53.486;10.196;2024-03-02T09:41:25;25.27;;;12.60;;
71665;SDS011;59503;53.486;10.196;2024-03-02T09:43:50;24.43;;;13.13;;
71665;SDS011;59503;53.486;10.196;2024-03-02T09:46:16;26.40;;;12.57;;
71665;SDS011;59503;53.486;10.196;2024-03-02T09:48:44;25.70;;;11.50;;
71665;SDS011;59503;53.486;10.196;2024-03-02T09:51:10;22.87;;;11.50;;
71665;SDS011;59503;53.486;10.196;2024-03-02T09:53:36;22.60;;;11.60;;
71665;SDS011;59503;53.486;10.196;2024-03-02T09:56:03;21.60;;;12.00;;
71665;SDS011;59503;53.486;10.196;2024-03-02T09:58:29;22.58;;;11.43;;
71665;SDS011;59503;53.486;10.196;2024-03-02T10:00:55;21.87;;;10.77;;
71665;SDS011;59503;53.486;10.196;2024-03-02T10:03:21;22.95;;;10.90;;
71665;SDS011;59503;53.486;10.196;2024-03-02T10:05:48;22.88;;;10.85;;
71665;SDS011;59503;53.486;10.196;2024-03-02T10:08:13;20.70;;;10.47;;
71665;SDS011;59503;53.486;10.196;2024-03-02T10:10:40;22.45;;;10.90;;
71665;SDS011;59503;53.486;10.196;2024-03-02T10:13:08;18.77;;;9.77;;
71665;SDS011;59503;53.486;10.196;2024-03-02T10:15:36;18.80;;;9.88;;
71665;SDS011;59503;53.486;10.196;2024-03-02T10:18:08;19.90;;;9.68;;
71665;SDS011;59503;53.486;10.196;2024-03-02T10:20:35;18.17;;;10.13;;
71665;SDS011;59503;53.486;10.196;2024-03-02T10:23:16;20.23;;;9.90;;
71665;SDS011;59503;53.486;10.196;2024-03-02T10:25:43;20.98;;;9.25;;
71665;SDS011;59503;53.486;10.196;2024-03-02T10:28:09;19.83;;;10.40;;
71665;SDS011;59503;53.486;10.196;2024-03-02T10:30:35;19.60;;;9.63;;
71665;SDS011;59503;53.486;10.196;2024-03-02T10:33:01;19.17;;;9.25;;
71665;SDS011;59503;53.486;10.196;2024-03-02T10:35:27;17.58;;;8.98;;
71665;SDS011;59503;53.486;10.196;2024-03-02T10:37:53;17.17;;;9.20;;
71665;SDS011;59503;53.486;10.196;2024-03-02T10:40:22;16.37;;;8.63;;
71665;SDS011;59503;53.486;10.196;2024-03-02T10:42:49;21.38;;;9.77;;
71665;SDS011;59503;53.486;10.196;2024-03-02T10:45:16;18.13;;;8.88;;
71665;SDS011;59503;53.486;10.196;2024-03-02T10:47:44;19.58;;;9.55;;
71665;SDS011;59503;53.486;10.196;2024-03-02T10:50:12;19.02;;;9.80;;
71665;SDS011;59503;53.486;10.196;2024-03-02T10:52:38;19.43;;;9.80;;
71665;SDS011;59503;53.486;10.196;2024-03-02T10:55:04;17.52;;;9.32;;
71665;SDS011;59503;53.486;10.196;2024-03-02T11:00:17;16.67;;;9.37;;
71665;SDS011;59503;53.486;10.196;2024-03-02T11:02:56;20.33;;;9.00;;
71665;SDS011;59503;53.486;10.196;2024-03-02T11:05:27;15.75;;;8.27;;
71665;SDS011;59503;53.486;10.196;2024-03-02T11:07:56;19.00;;;8.65;;
71665;SDS011;59503;53.486;10.196;2024-03-02T11:10:26;16.13;;;8.25;;
71665;SDS011;59503;53.486;10.196;2024-03-02T11:12:59;15.57;;;7.63;;
71665;SDS011;59503;53.486;10.196;2024-03-02T11:15:27;13.40;;;7.78;;
71665;SDS011;59503;53.486;10.196;2024-03-02T11:17:53;13.63;;;7.88;;
71665;SDS011;59503;53.486;10.196;2024-03-02T11:20:20;15.63;;;7.68;;
71665;SDS011;59503;53.486;10.196;2024-03-02T11:22:46;16.60;;;7.85;;
71665;SDS011;59503;53.486;10.196;2024-03-02T11:25:25;14.13;;;7.40;;
71665;SDS011;59503;53.486;10.196;2024-03-02T11:32:58;14.43;;;7.53;;
71665;SDS011;59503;53.486;10.196;2024-03-02T11:35:51;14.60;;;7.93;;
71665;SDS011;59503;53.486;10.196;2024-03-02T11:38:17;16.83;;;8.18;;
71665;SDS011;59503;53.486;10.196;2024-03-02T11:40:43;17.58;;;8.30;;
71665;SDS011;59503;53.486;10.196;2024-03-02T11:43:09;19.10;;;9.00;;
71665;SDS011;59503;53.486;10.196;2024-03-02T11:45:36;16.40;;;8.45;;
71665;SDS011;59503;53.486;10.196;2024-03-02T11:48:08;18.00;;;9.40;;
71665;SDS011;59503;53.486;10.196;2024-03-02T11:50:40;17.33;;;8.85;;
71665;SDS011;59503;53.486;10.196;2024-03-02T11:53:15;17.30;;;8.77;;
71665;SDS011;59503;53.486;10.196;2024-03-02T11:55:42;16.17;;;8.50;;
71665;SDS011;59503;53.486;10.196;2024-03-02T11:58:16;14.98;;;7.95;;
71665;SDS011;59503;53.486;10.196;2024-03-02T12:00:46;14.13;;;8.23;;
71665;SDS011;59503;53.486;10.196;2024-03-02T12:03:14;16.77;;;8.88;;
71665;SDS011;59503;53.486;10.196;2024-03-02T12:05:40;17.97;;;8.00;;
71665;SDS011;59503;53.486;10.196;2024-03-02T12:08:07;16.20;;;8.07;;
71665;SDS011;59503;53.486;10.196;2024-03-02T12:10:34;20.02;;;8.73;;
71665;SDS011;59503;53.486;10.196;2024-03-02T12:13:02;15.68;;;7.50;;
71665;SDS011;59503;53.486;10.196;2024-03-02T12:15:30;16.38;;;8.13;;
71665;SDS011;59503;53.486;10.196;2024-03-02T12:18:02;16.43;;;8.17;;
71665;SDS011;59503;53.486;10.196;2024-03-02T12:20:28;15.13;;;7.45;;
71665;SDS011;59503;53.486;10.196;2024-03-02T12:22:55;15.48;;;7.90;;
71665;SDS011;59503;53.486;10.196;2024-03-02T12:25:23;17.98;;;8.27;;
71665;SDS011;59503;53.486;10.196;2024-03-02T12:27:50;13.35;;;7.68;;
71665;SDS011;59503;53.486;10.196;2024-03-02T12:30:19;14.40;;;7.10;;
71665;SDS011;59503;53.486;10.196;2024-03-02T12:32:45;12.88;;;6.65;;
71665;SDS011;59503;53.486;10.196;2024-03-02T12:35:11;14.15;;;7.70;;
71665;SDS011;59503;53.486;10.196;2024-03-02T12:37:47;11.68;;;7.20;;
71665;SDS011;59503;53.486;10.196;2024-03-02T12:40:14;14.90;;;6.82;;
71665;SDS011;59503;53.486;10.196;2024-03-02T12:42:42;14.53;;;7.90;;
71665;SDS011;59503;53.486;10.196;2024-03-02T12:45:08;13.18;;;7.45;;
71665;SDS011;59503;53.486;10.196;2024-03-02T12:47:34;15.00;;;7.10;;
71665;SDS011;59503;53.486;10.196;2024-03-02T12:50:00;13.73;;;7.18;;
71665;SDS011;59503;53.486;10.196;2024-03-02T12:52:26;14.50;;;7.65;;
71665;SDS011;59503;53.486;10.196;2024-03-02T12:54:52;17.23;;;7.70;;
71665;SDS011;59503;53.486;10.196;2024-03-02T12:57:24;15.07;;;8.52;;
71665;SDS011;59503;53.486;10.196;2024-03-02T12:59:51;13.02;;;7.47;;
71665;SDS011;59503;53.486;10.196;2024-03-02T13:02:17;14.18;;;8.15;;
71665;SDS011;59503;53.486;10.196;2024-03-02T13:04:43;14.77;;;7.67;;
71665;SDS011;59503;53.486;10.196;2024-03-02T13:07:09;14.63;;;7.55;;
71665;SDS011;59503;53.486;10.196;2024-03-02T13:09:37;14.50;;;7.68;;
71665;SDS011;59503;53.486;10.196;2024-03-02T13:12:02;14.93;;;7.63;;
71665;SDS011;59503;53.486;10.196;2024-03-02T13:14:31;14.63;;;7.53;;
71665;SDS011;59503;53.486;10.196;2024-03-02T13:17:01;15.80;;;7.95;;
71665;SDS011;59503;53.486;10.196;2024-03-02T13:19:29;15.48;;;7.75;;
71665;SDS011;59503;53.486;10.196;2024-03-02T13:21:56;14.80;;;7.57;;
71665;SDS011;59503;53.486;10.196;2024-03-02T13:24:22;18.67;;;8.10;;
71665;SDS011;59503;53.486;10.196;2024-03-02T13:26:50;14.40;;;7.82;;
71665;SDS011;59503;53.486;10.196;2024-03-02T13:29:20;13.50;;;7.35;;
71665;SDS011;59503;53.486;10.196;2024-03-02T13:31:46;14.65;;;7.53;;
71665;SDS011;59503;53.486;10.196;2024-03-02T13:34:12;17.13;;;7.90;;
71665;SDS011;59503;53.486;10.196;2024-03-02T13:36:37;17.77;;;8.50;;
71665;SDS011;59503;53.486;10.196;2024-03-02T13:39:04;15.02;;;7.88;;
71665;SDS011;59503;53.486;10.196;2024-03-02T13:41:36;16.48;;;8.15;;
71665;SDS011;59503;53.486;10.196;2024-03-02T13:44:02;15.60;;;8.37;;
71665;SDS011;59503;53.486;10.196;2024-03-02T13:46:28;16.35;;;8.82;;
71665;SDS011;59503;53.486;10.196;2024-03-02T13:48:54;15.07;;;8.03;;
71665;SDS011;59503;53.486;10.196;2024-03-02T13:51:21;15.95;;;7.63;;
71665;SDS011;59503;53.486;10.196;2024-03-02T13:53:46;19.52;;;8.27;;
71665;SDS011;59503;53.486;10.196;2024-03-02T13:56:12;14.73;;;7.53;;
71665;SDS011;59503;53.486;10.196;2024-03-02T13:58:38;15.40;;;7.20;;
71665;SDS011;59503;53.486;10.196;2024-03-02T14:01:04;13.83;;;8.00;;
71665;SDS011;59503;53.486;10.196;2024-03-02T14:03:30;11.88;;;7.20;;
71665;SDS011;59503;53.486;10.196;2024-03-02T14:05:56;14.13;;;7.47;;
71665;SDS011;59503;53.486;10.196;2024-03-02T14:08:22;15.70;;;6.80;;
71665;SDS011;59503;53.486;10.196;2024-03-02T14:10:48;15.50;;;7.57;;
71665;SDS011;59503;53.486;10.196;2024-03-02T14:13:15;14.18;;;7.50;;
71665;SDS011;59503;53.486;10.196;2024-03-02T14:15:41;13.88;;;7.40;;
71665;SDS011;59503;53.486;10.196;2024-03-02T14:18:06;16.17;;;6.97;;
71665;SDS011;59503;53.486;10.196;2024-03-02T14:20:35;14.68;;;6.82;;